• Join FlightAware (Why Join?)
  • Login
  • US Flag 
04:02PM EDT


 

Airport Tracker/Info


-or-


 

Live Flight TrackerFlight Track Log ✈ UAL1259 ✈ 23-Jul-2013 ✈ KLGA - KIAH

Flight Track Log - Related Links

Times and Time Zones

All times are in EDT time to prevent confusion due to time zone crossing. See the UAL1259 flight status page for this flight to view local times or setup timezone preferences in your user account.

Time Position Orientation Groundspeed Altitude Reporting Facility
EDT Latitude Longitude Course Direction KTS MPH feet Rate Location/Type
08:19PM 40.8333 -73.9333 330° Northwest 225 259 2,900  Level New York TRACON
08:20PM 40.9000 -73.9833 330° Northwest 255 293 6,000 2,880 Climbing New York TRACON
08:21PM 40.9167 -74.0667 285° West 271 312 8,700 2,700 Climbing New York TRACON
08:22PM 40.8833 -74.1500 242° Southwest 280 322 11,400 1,800 Climbing New York TRACON
08:23PM 40.8500 -74.2667 249° West 355 409 12,400 1,740 Climbing New York TRACON
08:25PM 40.7431 -74.5400 243° Southwest 388 447 17,100 2,160 Climbing New York Center
08:26PM 40.6931 -74.6739 244° Southwest 399 459 19,300 1,980 Climbing New York Center
08:27PM 40.6428 -74.8050 243° Southwest 399 459 21,100 1,800 Climbing New York Center
08:28PM 40.5919 -74.9442 244° Southwest 399 459 22,900 1,800 Climbing New York Center
08:29PM 40.5331 -75.0772 240° Southwest 412 474 24,700 1,500 Climbing New York Center
08:30PM 40.4625 -75.1819 228° Southwest 430 495 26,000 1,200 Climbing New York Center
08:31PM 40.3869 -75.3050 231° Southwest 440 506 27,200 1,380 Climbing New York Center
08:32PM 40.3092 -75.4281 230° Southwest 440 506 28,900 1,560 Climbing New York Center
08:33PM 40.2333 -75.5506 231° Southwest 440 506 30,300 1,380 Climbing New York Center
08:34PM 40.1658 -75.6764 235° Southwest 440 506 31,700 1,200 Climbing New York Center
08:35PM 40.1042 -75.8050 238° Southwest 433 498 32,800 1,200 Climbing New York Center
08:36PM 40.0358 -75.9358 236° Southwest 428 493 34,100 1,140 Climbing New York Center
08:37PM 39.9742 -76.0558 236° Southwest 423 487 35,100 900 Climbing New York Center
08:38PM 39.9122 -76.1836 238° Southwest 423 487 36,000 420 Climbing New York Center
08:39PM 39.8392 -76.3186 235° Southwest 423 487 36,000  Level New York Center
08:40PM 39.7750 -76.4406 236° Southwest 423 487 36,000  Level New York Center
08:41PM 39.7225 -76.5383 235° Southwest 416 479 36,000  Level Washington Center
08:42PM 39.6589 -76.6617 236° Southwest 416 479 36,000  Level Washington Center
08:43PM 39.5953 -76.7872 237° Southwest 422 486 36,000  Level Washington Center
08:44PM 39.5272 -76.9153 235° Southwest 428 493 36,000  Level Washington Center
08:45PM 39.4489 -77.0267 228° Southwest 428 493 36,000  Level Washington Center
08:47PM 39.2631 -77.2242 219° Southwest 434 499 36,000  Level Washington Center
08:48PM 39.1678 -77.3211 218° Southwest 434 499 36,000  Level Washington Center
08:49PM 39.0747 -77.4178 219° Southwest 434 499 36,000  Level Washington Center
08:50PM 38.9814 -77.5142 219° Southwest 434 499 36,000  Level Washington Center
08:51PM 38.8858 -77.6158 220° Southwest 444 511 36,000  Level Washington Center
08:52PM 38.7989 -77.7039 218° Southwest 444 511 36,000  Level Washington Center
08:53PM 38.7033 -77.7997 218° Southwest 450 518 36,000  Level Washington Center
08:54PM 38.6181 -77.9061 224° Southwest 444 511 36,000  Level Washington Center
08:55PM 38.5447 -78.0258 232° Southwest 430 495 36,000  Level Washington Center
08:56PM 38.4756 -78.1456 234° Southwest 430 495 36,000  Level Washington Center
08:57PM 38.4061 -78.2650 233° Southwest 430 495 36,000  Level Washington Center
08:58PM 38.3347 -78.3869 233° Southwest 430 495 36,000  Level Washington Center
08:59PM 38.2653 -78.5008 232° Southwest 430 495 36,000  Level Washington Center
09:00PM 38.1931 -78.6325 235° Southwest 420 483 36,000  Level Washington Center
09:01PM 38.1214 -78.7486 232° Southwest 420 483 36,000  Level Washington Center
09:02PM 38.0492 -78.8719 233° Southwest 426 490 36,000  Level Washington Center
09:03PM 37.9836 -78.9772 232° Southwest 431 496 36,000  Level Washington Center
09:04PM 37.9136 -79.0953 233° Southwest 431 496 36,000  Level Washington Center
09:05PM 37.8494 -79.2183 237° Southwest 426 490 36,000  Level Washington Center
09:06PM 37.7847 -79.3519 239° Southwest 421 484 36,000  Level Washington Center
09:07PM 37.7225 -79.4775 238° Southwest 421 484 36,000  Level Washington Center
09:08PM 37.6625 -79.5872 235° Southwest 421 484 36,000  Level Washington Center
09:09PM 37.5975 -79.7200 238° Southwest 421 484 36,000  Level Washington Center
09:10PM 37.5414 -79.8297 237° Southwest 421 484 36,000  Level Washington Center
09:12PM 37.4203 -80.0672 237° Southwest 402 463 36,000  Level Atlanta Center
09:13PM 37.3594 -80.1853 237° Southwest 402 463 36,000  Level Atlanta Center
09:14PM 37.3042 -80.2922 237° Southwest 408 470 36,000  Level Atlanta Center
09:15PM 37.2411 -80.4125 237° Southwest 408 470 36,000  Level Atlanta Center
09:16PM 37.1800 -80.5325 237° Southwest 408 470 36,000  Level Atlanta Center
09:17PM 37.1128 -80.6631 237° Southwest 413 475 36,000  Level Atlanta Center
09:18PM 37.0517 -80.7853 238° Southwest 413 475 36,000  Level Atlanta Center
09:19PM 36.9900 -80.9047 237° Southwest 413 475 36,000  Level Atlanta Center
09:20PM 36.9283 -81.0242 237° Southwest 420 483 36,000  Level Atlanta Center
09:21PM 36.8706 -81.1353 237° Southwest 420 483 36,000  Level Atlanta Center
09:22PM 36.8108 -81.2567 238° Southwest 420 483 36,000  Level Atlanta Center
09:23PM 36.7531 -81.3728 238° Southwest 410 472 36,000  Level Atlanta Center
09:24PM 36.6908 -81.4939 237° Southwest 415 478 36,000  Level Atlanta Center
09:25PM 36.6286 -81.6150 237° Southwest 420 483 36,000  Level Atlanta Center
09:26PM 36.5664 -81.7331 237° Southwest 420 483 36,000  Level Atlanta Center
09:27PM 36.5000 -81.8667 238° Southwest 420 483 36,000  Level Atlanta Center
09:28PM 36.4392 -81.9717 234° Southwest 419 482 36,000  Level Atlanta Center
09:29PM 36.3744 -82.0944 237° Southwest 419 482 36,000  Level Atlanta Center
09:30PM 36.3117 -82.2119 236° Southwest 419 482 36,000  Level Atlanta Center
09:31PM 36.2467 -82.3344 237° Southwest 419 482 36,000  Level Atlanta Center
09:32PM 36.1858 -82.4542 238° Southwest 419 482 36,000 60 Level Atlanta Center
09:33PM 36.1225 -82.5711 236° Southwest 414 476 36,200 600 Climbing Atlanta Center
09:34PM 36.0572 -82.6928 236° Southwest 419 482 37,200 900 Climbing Atlanta Center
09:35PM 35.9958 -82.8094 237° Southwest 419 482 38,000 360 Climbing Atlanta Center
09:36PM 35.9281 -82.9361 237° Southwest 419 482 38,000  Level Atlanta Center
09:37PM 35.8644 -83.0522 236° Southwest 419 482 38,000  Level Atlanta Center
09:38PM 35.8047 -83.1656 237° Southwest 419 482 38,000  Level Atlanta Center
09:39PM 35.7514 -83.2658 237° Southwest 410 472 38,000  Level Atlanta Center
09:40PM 35.6853 -83.3817 235° Southwest 410 472 38,000  Level Atlanta Center
09:41PM 35.6231 -83.4972 237° Southwest 410 472 38,000  Level Atlanta Center
09:42PM 35.5589 -83.6125 236° Southwest 415 478 38,000  Level Atlanta Center
09:43PM 35.4989 -83.7275 237° Southwest 415 478 38,000  Level Atlanta Center
09:44PM 35.4364 -83.8400 236° Southwest 415 478 38,000  Level Atlanta Center
09:45PM 35.3719 -83.9547 235° Southwest 415 478 38,000  Level Atlanta Center
09:46PM 35.3094 -84.0667 236° Southwest 415 478 38,000  Level Atlanta Center
09:47PM 35.2489 -84.1786 237° Southwest 409 471 38,000  Level Atlanta Center
09:48PM 35.1861 -84.2903 235° Southwest 409 471 38,000  Level Atlanta Center
09:49PM 35.1211 -84.4044 235° Southwest 409 471 38,000  Level Atlanta Center
09:50PM 35.0517 -84.5283 236° Southwest 404 465 38,000  Level Atlanta Center
09:51PM 34.9844 -84.6422 234° Southwest 409 471 38,000  Level Atlanta Center
09:52PM 34.9211 -84.7608 237° Southwest 414 476 38,000  Level Atlanta Center
09:53PM 34.8578 -84.8742 236° Southwest 414 476 38,000  Level Atlanta Center
09:54PM 34.7903 -84.9897 235° Southwest 419 482 38,000  Level Atlanta Center
09:55PM 34.7247 -85.1053 235° Southwest 419 482 38,000  Level Atlanta Center
09:56PM 34.6589 -85.2231 236° Southwest 419 482 38,000  Level Atlanta Center
09:57PM 34.5908 -85.3383 234° Southwest 424 488 38,000  Level Atlanta Center
09:58PM 34.5272 -85.4508 236° Southwest 418 481 38,000  Level Atlanta Center
09:59PM 34.4611 -85.5656 235° Southwest 418 481 38,000  Level Atlanta Center
10:00PM 34.3947 -85.6828 236° Southwest 418 481 38,000  Level Atlanta Center
10:01PM 34.3306 -85.7972 236° Southwest 418 481 38,000  Level Atlanta Center
10:02PM 34.2581 -85.9086 232° Southwest 418 481 38,000  Level Atlanta Center
10:03PM 34.1894 -86.0253 235° Southwest 429 494 38,000  Level Atlanta Center
10:04PM 34.1186 -86.1439 234° Southwest 435 501 38,000  Level Atlanta Center
10:05PM 34.0475 -86.2625 234° Southwest 441 507 38,000  Level Atlanta Center
10:06PM 33.9786 -86.3811 235° Southwest 446 513 38,000  Level Atlanta Center
10:07PM 33.9075 -86.4992 234° Southwest 446 513 38,000  Level Atlanta Center
10:08PM 33.8383 -86.6147 234° Southwest 446 513 38,000  Level Atlanta Center
10:09PM 33.7647 -86.7325 233° Southwest 446 513 38,000  Level Atlanta Center
10:10PM 33.6975 -86.8528 236° Southwest 446 513 38,000  Level Atlanta Center
10:11PM 33.6511 -86.9536 241° Southwest 439 505 38,000  Level Atlanta Center
10:12PM 33.5997 -87.0939 246° West 426 490 38,000  Level Atlanta Center
10:13PM 33.5569 -87.2244 249° West 426 490 38,000  Level Atlanta Center
10:14PM 33.4947 -87.4031 247° West 443 510 38,000  Level Memphis Center
10:15PM 33.4497 -87.5339 248° West 436 502 38,000  Level Memphis Center
10:16PM 33.4047 -87.6672 248° West 436 502 38,000  Level Memphis Center
10:17PM 33.3575 -87.8006 247° West 436 502 38,000  Level Memphis Center
10:18PM 33.3119 -87.9311 247° West 436 502 38,000  Level Memphis Center
10:19PM 33.2664 -88.0642 248° West 436 502 38,000  Level Memphis Center
10:20PM 33.2208 -88.1969 248° West 436 502 38,000  Level Memphis Center
10:21PM 33.1811 -88.3144 248° West 436 502 38,000  Level Memphis Center
10:22PM 33.1353 -88.4494 248° West 441 507 38,000  Level Memphis Center
10:23PM 33.0872 -88.5819 247° West 441 507 38,000  Level Memphis Center
10:24PM 33.0389 -88.7167 247° West 441 507 38,000  Level Memphis Center
10:25PM 32.9906 -88.8514 247° West 441 507 38,000  Level Memphis Center
10:26PM 32.9442 -88.9858 248° West 441 507 38,000  Level Memphis Center
10:27PM 32.8933 -89.1203 246° West 441 507 38,000 -180 Level Memphis Center
10:28PM 32.8361 -89.2497 242° Southwest 441 507 37,700 -600 Descending Memphis Center
10:29PM 32.7725 -89.3789 240° Southwest 452 520 36,800 -960 Descending Memphis Center
10:30PM 32.7108 -89.5103 241° Southwest 458 527 35,800 -960 Descending Memphis Center
10:31PM 32.6489 -89.6442 241° Southwest 463 533 34,900 -900 Descending Memphis Center
10:32PM 32.5850 -89.7803 241° Southwest 468 539 34,000 -480 Descending Memphis Center
10:33PM 32.5186 -89.9164 240° Southwest 468 539 34,000  Level Memphis Center
10:34PM 32.4586 -90.0519 242° Southwest 468 539 34,000  Level Memphis Center
10:35PM 32.3942 -90.1850 240° Southwest 468 539 34,000  Level Memphis Center
10:36PM 32.3275 -90.3228 240° Southwest 468 539 34,000  Level Memphis Center
10:37PM 32.2647 -90.4556 241° Southwest 468 539 34,000 -60 Level Memphis Center
10:39PM 32.1308 -90.7350 241° Southwest 486 559 33,900  Descending Houston Center
10:40PM 32.0556 -90.8975 241° Southwest 479 551 34,000  Climbing Houston Center
10:41PM 31.9878 -91.0367 240° Southwest 486 559 34,000  Level Houston Center
10:42PM 31.9169 -91.1711 238° Southwest 485 558 34,000  Level Houston Center
10:43PM 31.8489 -91.3069 239° Southwest 482 555 34,000  Level Houston Center
10:44PM 31.7839 -91.4453 241° Southwest 482 555 34,000  Level Houston Center
10:45PM 31.7164 -91.5797 239° Southwest 478 550 34,000  Level Houston Center
10:46PM 31.6497 -91.7139 240° Southwest 476 548 34,000  Level Houston Center
10:47PM 31.5828 -91.8492 240° Southwest 478 550 34,000  Level Houston Center
10:48PM 31.5172 -91.9844 240° Southwest 478 550 34,000  Level Houston Center
10:49PM 31.4444 -92.1256 239° Southwest 476 548 34,000  Level Houston Center
10:50PM 31.3758 -92.2611 239° Southwest 475 547 34,000  Level Houston Center
10:51PM 31.3089 -92.3917 239° Southwest 479 551 34,000  Level Houston Center
10:52PM 31.2419 -92.5253 240° Southwest 479 551 34,000  Level Houston Center
10:53PM 31.1700 -92.6561 237° Southwest 481 554 34,000  Level Houston Center
10:54PM 31.0819 -92.8119 237° Southwest 482 555 34,000  Level Houston Center
10:55PM 31.0092 -92.9428 237° Southwest 482 555 34,000  Level Houston Center
10:56PM 30.9353 -93.0736 237° Southwest 485 558 34,000  Level Houston Center
10:57PM 30.8608 -93.2056 237° Southwest 489 563 34,000 -60 Level Houston Center
10:58PM 30.7878 -93.3358 237° Southwest 485 558 33,900 -1,560 Descending Houston Center
10:59PM 30.7153 -93.4636 237° Southwest 479 551 30,900 -2,880 Descending Houston Center
11:00PM 30.6439 -93.5914 237° Southwest 480 552 28,000 -2,640 Descending Houston Center
11:01PM 30.5736 -93.7139 236° Southwest 466 536 25,500 -2,700 Descending Houston Center
11:02PM 30.4919 -93.8550 236° Southwest 446 513 22,600 -2,700 Descending Houston Center
11:03PM 30.4261 -93.9678 236° Southwest 428 493 20,100 -2,400 Descending Houston Center
11:04PM 30.3642 -94.0764 237° Southwest 408 470 17,800 -2,340 Descending Houston Center
11:05PM 30.3033 -94.1819 236° Southwest 396 456 15,400 -2,340 Descending Houston Center
11:06PM 30.2453 -94.2819 236° Southwest 379 436 13,100 -1,560 Descending Houston Center
11:08PM 30.1833 -94.4050 240° Southwest 323 372 12,000 -540 Descending Houston Center
11:09PM 30.1514 -94.5061 250° West 328 377 12,000 -60 Level Houston Center
11:10PM 30.1297 -94.5750 250° West 325 374 11,900 -840 Descending Houston Center
11:11PM 30.1019 -94.6672 251° West 313 360 10,500 -1,440 Descending Houston Center
11:12PM 30.0742 -94.7517 249° West 291 335 9,000 -1,860 Descending Houston Center
11:13PM 30.0433 -94.8475 250° West 272 313 6,800 -1,980 Descending Houston Center
11:14PM 30.0194 -94.9253 250° West 262 302 5,000 -1,740 Descending Houston Center
11:15PM 30.0103 -95.0075 263° West 260 299 3,300 -960 Descending Houston Center
11:16PM 29.9997 -95.0953 262° West 222 255 3,000 -240 Descending Houston Center
11:17PM 29.9925 -95.1514 262° West 224 258 2,900 -120 Descending Houston Center